sensor_id;sensor_type;location;lat;lon;timestamp;temperature;humidity
40696;DHT22;40425;51.102;17.208;2023-05-10T00:03:20;8.90;93.30
40696;DHT22;40425;51.102;17.208;2023-05-10T00:08:21;8.80;94.10
40696;DHT22;40425;51.102;17.208;2023-05-10T00:13:22;8.80;94.60
40696;DHT22;40425;51.102;17.208;2023-05-10T00:18:23;8.70;95.10
40696;DHT22;40425;51.102;17.208;2023-05-10T00:23:24;8.60;95.80
40696;DHT22;40425;51.102;17.208;2023-05-10T00:28:24;8.60;96.10
40696;DHT22;40425;51.102;17.208;2023-05-10T00:33:27;8.60;96.50
40696;DHT22;40425;51.102;17.208;2023-05-10T00:38:28;8.50;97.00
40696;DHT22;40425;51.102;17.208;2023-05-10T00:43:29;8.40;97.40
40696;DHT22;40425;51.102;17.208;2023-05-10T00:48:30;8.40;97.90
40696;DHT22;40425;51.102;17.208;2023-05-10T00:53:32;8.40;98.30
40696;DHT22;40425;51.102;17.208;2023-05-10T00:58:33;8.40;98.90
40696;DHT22;40425;51.102;17.208;2023-05-10T01:03:34;8.30;99.30
40696;DHT22;40425;51.102;17.208;2023-05-10T01:08:36;8.20;99.60
40696;DHT22;40425;51.102;17.208;2023-05-10T01:13:39;8.20;99.80
40696;DHT22;40425;51.102;17.208;2023-05-10T01:18:41;8.20;99.90
40696;DHT22;40425;51.102;17.208;2023-05-10T01:40:03;8.00;99.90
40696;DHT22;40425;51.102;17.208;2023-05-10T01:46:31;8.00;99.90
40696;DHT22;40425;51.102;17.208;2023-05-10T01:50:59;7.90;99.90
40696;DHT22;40425;51.102;17.208;2023-05-10T01:56:01;7.80;99.90
40696;DHT22;40425;51.102;17.208;2023-05-10T02:01:04;7.80;99.90
40696;DHT22;40425;51.102;17.208;2023-05-10T02:06:07;7.80;99.90
40696;DHT22;40425;51.102;17.208;2023-05-10T02:11:12;7.70;99.90
40696;DHT22;40425;51.102;17.208;2023-05-10T02:16:14;7.60;99.90
40696;DHT22;40425;51.102;17.208;2023-05-10T02:21:17;7.60;99.90
40696;DHT22;40425;51.102;17.208;2023-05-10T02:26:21;7.60;99.90
40696;DHT22;40425;51.102;17.208;2023-05-10T02:31:23;7.60;99.90
40696;DHT22;40425;51.102;17.208;2023-05-10T02:36:25;7.60;99.90
40696;DHT22;40425;51.102;17.208;2023-05-10T02:41:28;7.60;99.90
40696;DHT22;40425;51.102;17.208;2023-05-10T02:46:31;7.60;99.90
40696;DHT22;40425;51.102;17.208;2023-05-10T02:51:37;7.60;99.90
40696;DHT22;40425;51.102;17.208;2023-05-10T02:56:45;7.60;99.90
40696;DHT22;40425;51.102;17.208;2023-05-10T03:01:48;7.60;99.90
40696;DHT22;40425;51.102;17.208;2023-05-10T03:06:48;7.70;99.90
40696;DHT22;40425;51.102;17.208;2023-05-10T03:12:14;7.70;99.90
40696;DHT22;40425;51.102;17.208;2023-05-10T03:17:51;7.80;99.90
40696;DHT22;40425;51.102;17.208;2023-05-10T03:23:33;7.80;99.90
40696;DHT22;40425;51.102;17.208;2023-05-10T03:28:27;8.00;99.90
40696;DHT22;40425;51.102;17.208;2023-05-10T03:33:29;8.30;99.90
40696;DHT22;40425;51.102;17.208;2023-05-10T03:38:29;8.90;99.90
40696;DHT22;40425;51.102;17.208;2023-05-10T03:43:31;9.70;99.60
40696;DHT22;40425;51.102;17.208;2023-05-10T03:48:32;11.20;96.30
40696;DHT22;40425;51.102;17.208;2023-05-10T03:53:33;11.30;94.40
40696;DHT22;40425;51.102;17.208;2023-05-10T03:58:34;12.60;91.90
40696;DHT22;40425;51.102;17.208;2023-05-10T04:03:35;12.60;90.70
40696;DHT22;40425;51.102;17.208;2023-05-10T04:08:36;12.30;90.50
40696;DHT22;40425;51.102;17.208;2023-05-10T04:13:37;13.50;87.10
40696;DHT22;40425;51.102;17.208;2023-05-10T04:18:38;15.70;75.30
40696;DHT22;40425;51.102;17.208;2023-05-10T04:23:41;17.20;64.70
40696;DHT22;40425;51.102;17.208;2023-05-10T04:28:41;16.70;60.10
40696;DHT22;40425;51.102;17.208;2023-05-10T04:33:42;15.00;64.50
40696;DHT22;40425;51.102;17.208;2023-05-10T04:38:43;13.90;69.90
40696;DHT22;40425;51.102;17.208;2023-05-10T04:43:44;13.10;74.00
40696;DHT22;40425;51.102;17.208;2023-05-10T04:48:45;12.80;77.00
40696;DHT22;40425;51.102;17.208;2023-05-10T04:53:46;12.40;80.40
40696;DHT22;40425;51.102;17.208;2023-05-10T04:58:46;11.80;82.90
40696;DHT22;40425;51.102;17.208;2023-05-10T05:03:47;11.60;87.30
40696;DHT22;40425;51.102;17.208;2023-05-10T05:08:48;11.30;89.20
40696;DHT22;40425;51.102;17.208;2023-05-10T05:13:50;11.40;90.60
40696;DHT22;40425;51.102;17.208;2023-05-10T05:18:51;11.50;90.70
40696;DHT22;40425;51.102;17.208;2023-05-10T05:23:51;11.50;90.40
40696;DHT22;40425;51.102;17.208;2023-05-10T05:28:53;11.60;89.90
40696;DHT22;40425;51.102;17.208;2023-05-10T05:33:55;11.70;89.60
40696;DHT22;40425;51.102;17.208;2023-05-10T05:38:56;11.90;88.70
40696;DHT22;40425;51.102;17.208;2023-05-10T05:43:57;12.00;88.40
40696;DHT22;40425;51.102;17.208;2023-05-10T05:48:57;12.10;87.80
40696;DHT22;40425;51.102;17.208;2023-05-10T05:53:58;12.30;87.70
40696;DHT22;40425;51.102;17.208;2023-05-10T05:58:59;12.40;88.00
40696;DHT22;40425;51.102;17.208;2023-05-10T06:04:00;12.50;86.50
40696;DHT22;40425;51.102;17.208;2023-05-10T06:09:01;12.60;86.30
40696;DHT22;40425;51.102;17.208;2023-05-10T06:14:03;12.80;86.70
40696;DHT22;40425;51.102;17.208;2023-05-10T06:19:08;12.90;85.10
40696;DHT22;40425;51.102;17.208;2023-05-10T06:24:09;13.10;87.30
40696;DHT22;40425;51.102;17.208;2023-05-10T06:29:10;13.30;86.70
40696;DHT22;40425;51.102;17.208;2023-05-10T06:34:11;13.50;84.60
40696;DHT22;40425;51.102;17.208;2023-05-10T06:39:12;13.60;85.30
40696;DHT22;40425;51.102;17.208;2023-05-10T06:44:13;13.80;83.00
40696;DHT22;40425;51.102;17.208;2023-05-10T06:49:13;14.00;83.40
40696;DHT22;40425;51.102;17.208;2023-05-10T06:54:14;14.20;83.30
40696;DHT22;40425;51.102;17.208;2023-05-10T06:59:15;14.30;82.60
40696;DHT22;40425;51.102;17.208;2023-05-10T07:04:17;14.50;83.30
40696;DHT22;40425;51.102;17.208;2023-05-10T07:09:18;14.60;81.50
40696;DHT22;40425;51.102;17.208;2023-05-10T07:14:19;14.70;82.80
40696;DHT22;40425;51.102;17.208;2023-05-10T07:19:20;15.00;81.90
40696;DHT22;40425;51.102;17.208;2023-05-10T07:24:20;15.10;83.40
40696;DHT22;40425;51.102;17.208;2023-05-10T07:29:21;15.30;80.60
40696;DHT22;40425;51.102;17.208;2023-05-10T07:34:22;15.40;80.30
40696;DHT22;40425;51.102;17.208;2023-05-10T07:39:23;15.50;79.50
40696;DHT22;40425;51.102;17.208;2023-05-10T07:44:24;15.50;81.50
40696;DHT22;40425;51.102;17.208;2023-05-10T07:49:25;15.60;79.40
40696;DHT22;40425;51.102;17.208;2023-05-10T07:54:26;15.70;80.20
40696;DHT22;40425;51.102;17.208;2023-05-10T07:59:27;15.80;81.70
40696;DHT22;40425;51.102;17.208;2023-05-10T08:04:28;16.10;82.30
40696;DHT22;40425;51.102;17.208;2023-05-10T08:09:29;16.10;78.80
40696;DHT22;40425;51.102;17.208;2023-05-10T08:14:30;16.10;79.90
40696;DHT22;40425;51.102;17.208;2023-05-10T08:19:30;16.20;79.40
40696;DHT22;40425;51.102;17.208;2023-05-10T08:24:31;16.30;79.20
40696;DHT22;40425;51.102;17.208;2023-05-10T08:29:33;16.50;78.80
40696;DHT22;40425;51.102;17.208;2023-05-10T08:34:33;16.60;78.50
40696;DHT22;40425;51.102;17.208;2023-05-10T08:39:35;16.70;79.80
40696;DHT22;40425;51.102;17.208;2023-05-10T08:44:36;16.80;81.00
40696;DHT22;40425;51.102;17.208;2023-05-10T08:49:37;17.00;79.50
40696;DHT22;40425;51.102;17.208;2023-05-10T08:54:38;17.20;78.60
40696;DHT22;40425;51.102;17.208;2023-05-10T08:59:39;17.30;77.70
40696;DHT22;40425;51.102;17.208;2023-05-10T09:04:40;17.40;76.20
40696;DHT22;40425;51.102;17.208;2023-05-10T09:09:41;17.50;72.70
40696;DHT22;40425;51.102;17.208;2023-05-10T09:14:44;17.60;74.80
40696;DHT22;40425;51.102;17.208;2023-05-10T09:19:45;17.80;72.40
40696;DHT22;40425;51.102;17.208;2023-05-10T09:24:46;17.90;73.10
40696;DHT22;40425;51.102;17.208;2023-05-10T09:29:47;18.10;72.40
40696;DHT22;40425;51.102;17.208;2023-05-10T09:34:49;18.30;73.40
40696;DHT22;40425;51.102;17.208;2023-05-10T09:39:54;18.40;72.50
40696;DHT22;40425;51.102;17.208;2023-05-10T09:45:03;18.50;71.00
40696;DHT22;40425;51.102;17.208;2023-05-10T09:50:05;18.40;69.50
40696;DHT22;40425;51.102;17.208;2023-05-10T09:55:07;18.50;70.70
40696;DHT22;40425;51.102;17.208;2023-05-10T10:00:08;18.50;69.30
40696;DHT22;40425;51.102;17.208;2023-05-10T10:05:13;18.60;70.50
40696;DHT22;40425;51.102;17.208;2023-05-10T10:10:15;18.80;68.80
40696;DHT22;40425;51.102;17.208;2023-05-10T10:15:16;18.80;67.90
40696;DHT22;40425;51.102;17.208;2023-05-10T10:20:18;19.00;69.00
40696;DHT22;40425;51.102;17.208;2023-05-10T10:25:20;19.20;65.70
40696;DHT22;40425;51.102;17.208;2023-05-10T10:30:42;19.30;65.30
40696;DHT22;40425;51.102;17.208;2023-05-10T10:35:45;19.30;65.50
40696;DHT22;40425;51.102;17.208;2023-05-10T10:40:47;19.50;67.20
40696;DHT22;40425;51.102;17.208;2023-05-10T10:46:17;19.60;64.40
40696;DHT22;40425;51.102;17.208;2023-05-10T10:51:17;19.70;63.30
40696;DHT22;40425;51.102;17.208;2023-05-10T10:56:22;20.00;64.40
40696;DHT22;40425;51.102;17.208;2023-05-10T11:01:24;19.70;61.80
40696;DHT22;40425;51.102;17.208;2023-05-10T11:06:34;20.10;65.90
40696;DHT22;40425;51.102;17.208;2023-05-10T11:11:36;20.10;61.30
40696;DHT22;40425;51.102;17.208;2023-05-10T11:16:48;20.10;62.10
40696;DHT22;40425;51.102;17.208;2023-05-10T11:22:12;20.40;59.80
40696;DHT22;40425;51.102;17.208;2023-05-10T11:27:14;20.80;61.30
40696;DHT22;40425;51.102;17.208;2023-05-10T11:32:15;20.60;59.70
40696;DHT22;40425;51.102;17.208;2023-05-10T11:37:17;20.90;58.50
40696;DHT22;40425;51.102;17.208;2023-05-10T11:42:18;21.00;58.10
40696;DHT22;40425;51.102;17.208;2023-05-10T11:47:19;21.00;58.90
40696;DHT22;40425;51.102;17.208;2023-05-10T11:52:20;21.20;55.90
40696;DHT22;40425;51.102;17.208;2023-05-10T11:57:26;21.10;55.30
40696;DHT22;40425;51.102;17.208;2023-05-10T12:02:28;21.00;56.20
40696;DHT22;40425;51.102;17.208;2023-05-10T12:07:30;21.00;53.70
40696;DHT22;40425;51.102;17.208;2023-05-10T12:12:57;20.90;55.90
40696;DHT22;40425;51.102;17.208;2023-05-10T12:17:58;21.00;53.80
40696;DHT22;40425;51.102;17.208;2023-05-10T12:22:59;21.00;54.90
40696;DHT22;40425;51.102;17.208;2023-05-10T12:28:07;21.10;54.10
40696;DHT22;40425;51.102;17.208;2023-05-10T12:33:10;20.80;50.50
40696;DHT22;40425;51.102;17.208;2023-05-10T12:43:26;21.10;52.00
40696;DHT22;40425;51.102;17.208;2023-05-10T12:48:27;20.90;51.30
40696;DHT22;40425;51.102;17.208;2023-05-10T12:53:29;20.80;51.50
40696;DHT22;40425;51.102;17.208;2023-05-10T12:58:30;20.60;50.70
40696;DHT22;40425;51.102;17.208;2023-05-10T13:03:31;21.20;50.30
40696;DHT22;40425;51.102;17.208;2023-05-10T13:08:32;21.20;49.70
40696;DHT22;40425;51.102;17.208;2023-05-10T13:13:34;21.00;49.00
40696;DHT22;40425;51.102;17.208;2023-05-10T13:18:34;21.10;51.10
40696;DHT22;40425;51.102;17.208;2023-05-10T13:23:35;21.00;47.20
40696;DHT22;40425;51.102;17.208;2023-05-10T13:28:36;21.10;48.00
40696;DHT22;40425;51.102;17.208;2023-05-10T13:33:39;21.40;44.00
40696;DHT22;40425;51.102;17.208;2023-05-10T13:38:40;21.40;46.90
40696;DHT22;40425;51.102;17.208;2023-05-10T13:43:41;21.40;47.60
40696;DHT22;40425;51.102;17.208;2023-05-10T13:48:45;21.50;47.20
40696;DHT22;40425;51.102;17.208;2023-05-10T13:53:45;21.70;45.20
40696;DHT22;40425;51.102;17.208;2023-05-10T13:58:47;21.70;46.50
40696;DHT22;40425;51.102;17.208;2023-05-10T14:03:48;21.80;42.00
40696;DHT22;40425;51.102;17.208;2023-05-10T14:08:49;21.80;43.90
40696;DHT22;40425;51.102;17.208;2023-05-10T14:13:50;21.90;43.20
40696;DHT22;40425;51.102;17.208;2023-05-10T14:18:51;21.70;41.40
40696;DHT22;40425;51.102;17.208;2023-05-10T14:23:52;21.50;43.80
40696;DHT22;40425;51.102;17.208;2023-05-10T14:28:53;21.50;44.30
40696;DHT22;40425;51.102;17.208;2023-05-10T14:33:53;21.50;43.80
40696;DHT22;40425;51.102;17.208;2023-05-10T14:38:56;21.60;44.90
40696;DHT22;40425;51.102;17.208;2023-05-10T14:43:57;21.60;43.50
40696;DHT22;40425;51.102;17.208;2023-05-10T14:48:58;21.50;44.10
40696;DHT22;40425;51.102;17.208;2023-05-10T14:53:58;21.20;44.30
40696;DHT22;40425;51.102;17.208;2023-05-10T14:59:00;21.50;45.00
40696;DHT22;40425;51.102;17.208;2023-05-10T15:04:01;21.70;42.80
40696;DHT22;40425;51.102;17.208;2023-05-10T15:09:02;21.50;43.60
40696;DHT22;40425;51.102;17.208;2023-05-10T15:14:07;21.50;44.10
40696;DHT22;40425;51.102;17.208;2023-05-10T15:19:07;21.80;44.30
40696;DHT22;40425;51.102;17.208;2023-05-10T15:24:08;21.60;44.40
40696;DHT22;40425;51.102;17.208;2023-05-10T15:29:10;21.30;44.80
40696;DHT22;40425;51.102;17.208;2023-05-10T15:34:11;21.30;43.40
40696;DHT22;40425;51.102;17.208;2023-05-10T15:39:13;21.30;44.40
40696;DHT22;40425;51.102;17.208;2023-05-10T15:44:15;21.00;44.80
40696;DHT22;40425;51.102;17.208;2023-05-10T15:49:16;20.60;43.80
40696;DHT22;40425;51.102;17.208;2023-05-10T15:54:18;20.50;45.40
40696;DHT22;40425;51.102;17.208;2023-05-10T15:59:19;20.70;44.40
40696;DHT22;40425;51.102;17.208;2023-05-10T16:04:22;20.70;45.20
40696;DHT22;40425;51.102;17.208;2023-05-10T16:09:23;20.70;46.10
40696;DHT22;40425;51.102;17.208;2023-05-10T16:14:24;20.70;46.60
40696;DHT22;40425;51.102;17.208;2023-05-10T16:19:26;20.70;46.70
40696;DHT22;40425;51.102;17.208;2023-05-10T16:24:27;20.40;46.60
40696;DHT22;40425;51.102;17.208;2023-05-10T16:29:28;20.20;46.90
40696;DHT22;40425;51.102;17.208;2023-05-10T16:34:29;19.90;48.70
40696;DHT22;40425;51.102;17.208;2023-05-10T16:39:31;19.80;48.50
40696;DHT22;40425;51.102;17.208;2023-05-10T16:44:32;19.70;48.10
40696;DHT22;40425;51.102;17.208;2023-05-10T16:49:35;19.80;48.60
40696;DHT22;40425;51.102;17.208;2023-05-10T16:54:36;19.80;49.10
40696;DHT22;40425;51.102;17.208;2023-05-10T16:59:37;19.70;49.20
40696;DHT22;40425;51.102;17.208;2023-05-10T17:04:39;19.60;50.00
40696;DHT22;40425;51.102;17.208;2023-05-10T17:09:41;19.40;50.20
40696;DHT22;40425;51.102;17.208;2023-05-10T17:14:44;19.20;51.60
40696;DHT22;40425;51.102;17.208;2023-05-10T17:19:45;19.00;52.50
40696;DHT22;40425;51.102;17.208;2023-05-10T17:24:46;18.80;53.70
40696;DHT22;40425;51.102;17.208;2023-05-10T17:29:47;18.90;53.60
40696;DHT22;40425;51.102;17.208;2023-05-10T17:34:48;18.90;53.80
40696;DHT22;40425;51.102;17.208;2023-05-10T17:39:49;19.00;53.80
40696;DHT22;40425;51.102;17.208;2023-05-10T17:44:50;18.90;54.00
40696;DHT22;40425;51.102;17.208;2023-05-10T17:49:50;18.70;55.60
40696;DHT22;40425;51.102;17.208;2023-05-10T17:54:52;18.60;55.70
40696;DHT22;40425;51.102;17.208;2023-05-10T17:59:53;18.50;56.30
40696;DHT22;40425;51.102;17.208;2023-05-10T18:04:53;18.30;57.90
40696;DHT22;40425;51.102;17.208;2023-05-10T18:09:56;18.20;58.30
40696;DHT22;40425;51.102;17.208;2023-05-10T18:14:57;18.00;57.90
40696;DHT22;40425;51.102;17.208;2023-05-10T18:19:57;17.90;58.40
40696;DHT22;40425;51.102;17.208;2023-05-10T18:24:58;17.80;58.90
40696;DHT22;40425;51.102;17.208;2023-05-10T18:29:59;17.60;58.70
40696;DHT22;40425;51.102;17.208;2023-05-10T18:35:00;17.50;59.20
40696;DHT22;40425;51.102;17.208;2023-05-10T18:40:01;17.30;59.70
40696;DHT22;40425;51.102;17.208;2023-05-10T18:45:04;17.20;60.40
40696;DHT22;40425;51.102;17.208;2023-05-10T18:50:07;17.00;60.90
40696;DHT22;40425;51.102;17.208;2023-05-10T18:55:10;16.90;61.40
40696;DHT22;40425;51.102;17.208;2023-05-10T19:00:12;16.80;62.10
40696;DHT22;40425;51.102;17.208;2023-05-10T19:05:15;16.60;63.20
40696;DHT22;40425;51.102;17.208;2023-05-10T19:10:18;16.50;63.40
40696;DHT22;40425;51.102;17.208;2023-05-10T19:15:20;16.40;62.60
40696;DHT22;40425;51.102;17.208;2023-05-10T19:20:23;16.20;65.10
40696;DHT22;40425;51.102;17.208;2023-05-10T19:25:25;16.10;64.40
40696;DHT22;40425;51.102;17.208;2023-05-10T19:30:29;15.80;71.90
40696;DHT22;40425;51.102;17.208;2023-05-10T19:35:31;15.60;71.00
40696;DHT22;40425;51.102;17.208;2023-05-10T19:40:32;15.50;71.30
40696;DHT22;40425;51.102;17.208;2023-05-10T19:45:34;15.50;70.60
40696;DHT22;40425;51.102;17.208;2023-05-10T19:50:35;15.40;71.50
40696;DHT22;40425;51.102;17.208;2023-05-10T19:55:37;15.30;71.80
40696;DHT22;40425;51.102;17.208;2023-05-10T20:00:38;15.30;72.00
40696;DHT22;40425;51.102;17.208;2023-05-10T20:05:39;15.30;72.40
40696;DHT22;40425;51.102;17.208;2023-05-10T20:10:40;15.20;72.80
40696;DHT22;40425;51.102;17.208;2023-05-10T20:15:41;15.10;73.10
40696;DHT22;40425;51.102;17.208;2023-05-10T20:20:41;15.10;71.60
40696;DHT22;40425;51.102;17.208;2023-05-10T20:25:42;15.20;71.90
40696;DHT22;40425;51.102;17.208;2023-05-10T20:30:44;15.10;72.80
40696;DHT22;40425;51.102;17.208;2023-05-10T20:35:45;15.10;73.20
40696;DHT22;40425;51.102;17.208;2023-05-10T20:40:46;15.20;75.10
40696;DHT22;40425;51.102;17.208;2023-05-10T20:45:48;15.10;76.90
40696;DHT22;40425;51.102;17.208;2023-05-10T20:50:49;15.10;77.10
40696;DHT22;40425;51.102;17.208;2023-05-10T20:55:54;15.10;78.50
40696;DHT22;40425;51.102;17.208;2023-05-10T21:00:56;15.10;77.20
40696;DHT22;40425;51.102;17.208;2023-05-10T21:05:56;15.00;77.10
40696;DHT22;40425;51.102;17.208;2023-05-10T21:10:58;14.90;73.80
40696;DHT22;40425;51.102;17.208;2023-05-10T21:16:01;14.80;73.30
40696;DHT22;40425;51.102;17.208;2023-05-10T21:21:02;14.80;73.50
40696;DHT22;40425;51.102;17.208;2023-05-10T21:26:03;14.70;73.00
40696;DHT22;40425;51.102;17.208;2023-05-10T21:31:04;14.60;73.00
40696;DHT22;40425;51.102;17.208;2023-05-10T21:36:06;14.60;72.50
40696;DHT22;40425;51.102;17.208;2023-05-10T21:41:07;14.60;72.30
40696;DHT22;40425;51.102;17.208;2023-05-10T21:46:08;14.60;72.70
40696;DHT22;40425;51.102;17.208;2023-05-10T21:51:09;14.60;72.20
40696;DHT22;40425;51.102;17.208;2023-05-10T21:56:10;14.60;71.90
40696;DHT22;40425;51.102;17.208;2023-05-10T22:01:11;14.50;71.60
40696;DHT22;40425;51.102;17.208;2023-05-10T22:06:14;14.60;71.40
40696;DHT22;40425;51.102;17.208;2023-05-10T22:11:15;14.60;71.10
40696;DHT22;40425;51.102;17.208;2023-05-10T22:16:16;14.60;71.00
40696;DHT22;40425;51.102;17.208;2023-05-10T22:21:17;14.60;70.40
40696;DHT22;40425;51.102;17.208;2023-05-10T22:26:18;14.60;69.80
40696;DHT22;40425;51.102;17.208;2023-05-10T22:31:18;14.50;70.40
40696;DHT22;40425;51.102;17.208;2023-05-10T22:36:19;14.50;71.30
40696;DHT22;40425;51.102;17.208;2023-05-10T22:41:21;14.40;71.10
40696;DHT22;40425;51.102;17.208;2023-05-10T22:46:22;14.30;71.10
40696;DHT22;40425;51.102;17.208;2023-05-10T22:51:23;14.20;72.30
40696;DHT22;40425;51.102;17.208;2023-05-10T22:56:24;14.00;73.40
40696;DHT22;40425;51.102;17.208;2023-05-10T23:01:25;13.80;73.40
40696;DHT22;40425;51.102;17.208;2023-05-10T23:06:26;13.60;74.30
40696;DHT22;40425;51.102;17.208;2023-05-10T23:11:27;13.50;74.30
40696;DHT22;40425;51.102;17.208;2023-05-10T23:16:28;13.40;74.80
40696;DHT22;40425;51.102;17.208;2023-05-10T23:21:29;13.30;76.60
40696;DHT22;40425;51.102;17.208;2023-05-10T23:26:30;13.10;76.20
40696;DHT22;40425;51.102;17.208;2023-05-10T23:31:31;12.90;76.90
40696;DHT22;40425;51.102;17.208;2023-05-10T23:36:32;12.80;78.00
40696;DHT22;40425;51.102;17.208;2023-05-10T23:41:33;12.70;78.70
40696;DHT22;40425;51.102;17.208;2023-05-10T23:46:34;12.50;79.60
40696;DHT22;40425;51.102;17.208;2023-05-10T23:51:35;12.50;81.10
40696;DHT22;40425;51.102;17.208;2023-05-10T23:56:36;12.50;80.60
